sensor_id;sensor_type;location;lat;lon;timestamp;P1;durP1;ratioP1;P2;durP2;ratioP2
79670;SDS011;69137;50.878;8.050;2023-05-20T00:00:02;2.83;;;2.00;;
79670;SDS011;69137;50.878;8.050;2023-05-20T00:02:27;4.10;;;2.30;;
79670;SDS011;69137;50.878;8.050;2023-05-20T00:04:53;3.05;;;2.00;;
79670;SDS011;69137;50.878;8.050;2023-05-20T00:07:18;4.22;;;2.28;;
79670;SDS011;69137;50.878;8.050;2023-05-20T00:09:44;4.18;;;2.30;;
79670;SDS011;69137;50.878;8.050;2023-05-20T00:12:09;4.97;;;2.00;;
79670;SDS011;69137;50.878;8.050;2023-05-20T00:14:34;5.55;;;2.13;;
79670;SDS011;69137;50.878;8.050;2023-05-20T00:17:00;5.03;;;2.75;;
79670;SDS011;69137;50.878;8.050;2023-05-20T00:19:25;4.13;;;2.30;;
79670;SDS011;69137;50.878;8.050;2023-05-20T00:21:51;3.58;;;2.20;;
79670;SDS011;69137;50.878;8.050;2023-05-20T00:24:16;2.65;;;1.92;;
79670;SDS011;69137;50.878;8.050;2023-05-20T00:26:42;3.80;;;2.47;;
79670;SDS011;69137;50.878;8.050;2023-05-20T00:29:07;3.65;;;2.33;;
79670;SDS011;69137;50.878;8.050;2023-05-20T00:31:32;7.25;;;2.30;;
79670;SDS011;69137;50.878;8.050;2023-05-20T00:33:58;5.05;;;2.50;;
79670;SDS011;69137;50.878;8.050;2023-05-20T00:36:23;4.93;;;2.50;;
79670;SDS011;69137;50.878;8.050;2023-05-20T00:38:48;4.68;;;2.53;;
79670;SDS011;69137;50.878;8.050;2023-05-20T00:41:14;2.95;;;2.33;;
79670;SDS011;69137;50.878;8.050;2023-05-20T00:43:39;5.57;;;2.17;;
79670;SDS011;69137;50.878;8.050;2023-05-20T00:46:05;5.47;;;2.42;;
79670;SDS011;69137;50.878;8.050;2023-05-20T00:48:32;3.58;;;2.38;;
79670;SDS011;69137;50.878;8.050;2023-05-20T00:51:05;3.22;;;2.03;;
79670;SDS011;69137;50.878;8.050;2023-05-20T00:53:31;4.13;;;2.38;;
79670;SDS011;69137;50.878;8.050;2023-05-20T00:55:58;3.67;;;2.33;;
79670;SDS011;69137;50.878;8.050;2023-05-20T00:58:24;3.53;;;2.20;;
79670;SDS011;69137;50.878;8.050;2023-05-20T01:00:49;6.80;;;1.92;;
79670;SDS011;69137;50.878;8.050;2023-05-20T01:03:16;4.18;;;2.47;;
79670;SDS011;69137;50.878;8.050;2023-05-20T01:05:42;4.95;;;2.30;;
79670;SDS011;69137;50.878;8.050;2023-05-20T01:08:07;4.13;;;2.28;;
79670;SDS011;69137;50.878;8.050;2023-05-20T01:10:33;3.53;;;2.55;;
79670;SDS011;69137;50.878;8.050;2023-05-20T01:13:04;4.03;;;2.72;;
79670;SDS011;69137;50.878;8.050;2023-05-20T01:15:32;11.50;;;2.58;;
79670;SDS011;69137;50.878;8.050;2023-05-20T01:18:02;2.95;;;2.28;;
79670;SDS011;69137;50.878;8.050;2023-05-20T01:20:32;4.38;;;2.72;;
79670;SDS011;69137;50.878;8.050;2023-05-20T01:22:59;4.18;;;2.30;;
79670;SDS011;69137;50.878;8.050;2023-05-20T01:25:25;2.70;;;1.95;;
79670;SDS011;69137;50.878;8.050;2023-05-20T01:27:51;5.90;;;2.55;;
79670;SDS011;69137;50.878;8.050;2023-05-20T01:30:18;3.42;;;2.38;;
79670;SDS011;69137;50.878;8.050;2023-05-20T01:33:27;5.05;;;2.58;;
79670;SDS011;69137;50.878;8.050;2023-05-20T01:35:36;4.97;;;2.90;;
79670;SDS011;69137;50.878;8.050;2023-05-20T01:38:05;4.15;;;2.38;;
79670;SDS011;69137;50.878;8.050;2023-05-20T01:40:31;5.05;;;2.70;;
79670;SDS011;69137;50.878;8.050;2023-05-20T01:42:58;4.75;;;3.00;;
79670;SDS011;69137;50.878;8.050;2023-05-20T01:45:25;5.07;;;2.47;;
79670;SDS011;69137;50.878;8.050;2023-05-20T01:47:51;8.95;;;2.75;;
79670;SDS011;69137;50.878;8.050;2023-05-20T01:50:16;4.93;;;2.67;;
79670;SDS011;69137;50.878;8.050;2023-05-20T01:52:42;3.80;;;2.45;;
79670;SDS011;69137;50.878;8.050;2023-05-20T01:55:07;5.45;;;2.70;;
79670;SDS011;69137;50.878;8.050;2023-05-20T01:57:33;4.13;;;2.45;;
79670;SDS011;69137;50.878;8.050;2023-05-20T01:59:59;5.75;;;2.80;;
79670;SDS011;69137;50.878;8.050;2023-05-20T02:02:24;6.32;;;2.70;;
79670;SDS011;69137;50.878;8.050;2023-05-20T02:04:50;4.85;;;2.47;;
79670;SDS011;69137;50.878;8.050;2023-05-20T02:07:17;6.18;;;2.80;;
79670;SDS011;69137;50.878;8.050;2023-05-20T02:09:43;5.88;;;2.65;;
79670;SDS011;69137;50.878;8.050;2023-05-20T02:12:09;4.28;;;2.72;;
79670;SDS011;69137;50.878;8.050;2023-05-20T02:14:40;3.47;;;2.45;;
79670;SDS011;69137;50.878;8.050;2023-05-20T02:17:06;4.65;;;2.78;;
79670;SDS011;69137;50.878;8.050;2023-05-20T02:19:31;4.32;;;2.55;;
79670;SDS011;69137;50.878;8.050;2023-05-20T02:21:56;4.18;;;2.50;;
79670;SDS011;69137;50.878;8.050;2023-05-20T02:24:22;5.82;;;3.20;;
79670;SDS011;69137;50.878;8.050;2023-05-20T02:26:47;3.90;;;2.50;;
79670;SDS011;69137;50.878;8.050;2023-05-20T02:29:15;5.72;;;2.47;;
79670;SDS011;69137;50.878;8.050;2023-05-20T02:31:40;3.70;;;2.80;;
79670;SDS011;69137;50.878;8.050;2023-05-20T02:34:06;3.85;;;2.28;;
79670;SDS011;69137;50.878;8.050;2023-05-20T02:36:31;3.90;;;2.83;;
79670;SDS011;69137;50.878;8.050;2023-05-20T02:38:56;4.93;;;2.75;;
79670;SDS011;69137;50.878;8.050;2023-05-20T02:41:22;5.07;;;2.70;;
79670;SDS011;69137;50.878;8.050;2023-05-20T02:43:47;5.28;;;2.78;;
79670;SDS011;69137;50.878;8.050;2023-05-20T02:46:13;3.80;;;2.50;;
79670;SDS011;69137;50.878;8.050;2023-05-20T02:48:39;4.18;;;2.72;;
79670;SDS011;69137;50.878;8.050;2023-05-20T02:51:05;4.43;;;2.60;;
79670;SDS011;69137;50.878;8.050;2023-05-20T02:53:30;4.82;;;2.58;;
79670;SDS011;69137;50.878;8.050;2023-05-20T02:55:56;5.05;;;2.58;;
79670;SDS011;69137;50.878;8.050;2023-05-20T02:58:21;6.63;;;2.83;;
79670;SDS011;69137;50.878;8.050;2023-05-20T03:00:50;3.92;;;2.70;;
79670;SDS011;69137;50.878;8.050;2023-05-20T03:03:16;5.68;;;3.00;;
79670;SDS011;69137;50.878;8.050;2023-05-20T03:05:41;8.85;;;2.65;;
79670;SDS011;69137;50.878;8.050;2023-05-20T03:08:10;4.38;;;2.60;;
79670;SDS011;69137;50.878;8.050;2023-05-20T03:10:36;5.00;;;2.83;;
79670;SDS011;69137;50.878;8.050;2023-05-20T03:13:03;4.93;;;2.92;;
79670;SDS011;69137;50.878;8.050;2023-05-20T03:15:29;5.18;;;2.80;;
79670;SDS011;69137;50.878;8.050;2023-05-20T03:17:54;6.03;;;3.03;;
79670;SDS011;69137;50.878;8.050;2023-05-20T03:20:20;6.38;;;2.92;;
79670;SDS011;69137;50.878;8.050;2023-05-20T03:22:45;5.25;;;3.15;;
79670;SDS011;69137;50.878;8.050;2023-05-20T03:25:11;5.55;;;3.10;;
79670;SDS011;69137;50.878;8.050;2023-05-20T03:27:37;4.88;;;2.72;;
79670;SDS011;69137;50.878;8.050;2023-05-20T03:30:02;7.65;;;3.30;;
79670;SDS011;69137;50.878;8.050;2023-05-20T03:32:29;4.53;;;2.95;;
79670;SDS011;69137;50.878;8.050;2023-05-20T03:34:54;5.60;;;3.25;;
79670;SDS011;69137;50.878;8.050;2023-05-20T03:37:22;3.65;;;2.75;;
79670;SDS011;69137;50.878;8.050;2023-05-20T03:39:47;4.80;;;3.00;;
79670;SDS011;69137;50.878;8.050;2023-05-20T03:42:12;4.55;;;2.42;;
79670;SDS011;69137;50.878;8.050;2023-05-20T03:44:38;4.50;;;2.78;;
79670;SDS011;69137;50.878;8.050;2023-05-20T03:47:04;5.28;;;2.65;;
79670;SDS011;69137;50.878;8.050;2023-05-20T03:49:30;4.35;;;2.78;;
79670;SDS011;69137;50.878;8.050;2023-05-20T03:51:55;5.95;;;3.33;;
79670;SDS011;69137;50.878;8.050;2023-05-20T03:54:20;6.28;;;2.83;;
79670;SDS011;69137;50.878;8.050;2023-05-20T03:56:46;5.60;;;3.08;;
79670;SDS011;69137;50.878;8.050;2023-05-20T03:59:13;7.00;;;2.95;;
79670;SDS011;69137;50.878;8.050;2023-05-20T04:01:38;4.88;;;3.20;;
79670;SDS011;69137;50.878;8.050;2023-05-20T04:04:04;3.42;;;2.45;;
79670;SDS011;69137;50.878;8.050;2023-05-20T04:06:29;4.25;;;2.78;;
79670;SDS011;69137;50.878;8.050;2023-05-20T04:08:55;5.57;;;3.60;;
79670;SDS011;69137;50.878;8.050;2023-05-20T04:11:21;6.97;;;2.90;;
79670;SDS011;69137;50.878;8.050;2023-05-20T04:13:46;6.38;;;2.83;;
79670;SDS011;69137;50.878;8.050;2023-05-20T04:16:12;5.13;;;2.88;;
79670;SDS011;69137;50.878;8.050;2023-05-20T04:18:37;18.35;;;3.53;;
79670;SDS011;69137;50.878;8.050;2023-05-20T04:21:03;3.60;;;2.42;;
79670;SDS011;69137;50.878;8.050;2023-05-20T04:23:29;7.38;;;3.03;;
79670;SDS011;69137;50.878;8.050;2023-05-20T04:25:54;7.65;;;2.88;;
79670;SDS011;69137;50.878;8.050;2023-05-20T04:28:20;5.97;;;3.13;;
79670;SDS011;69137;50.878;8.050;2023-05-20T04:30:48;6.40;;;2.70;;
79670;SDS011;69137;50.878;8.050;2023-05-20T04:33:14;5.05;;;2.60;;
79670;SDS011;69137;50.878;8.050;2023-05-20T04:35:40;3.75;;;2.55;;
79670;SDS011;69137;50.878;8.050;2023-05-20T04:38:05;5.85;;;2.88;;
79670;SDS011;69137;50.878;8.050;2023-05-20T04:40:32;5.13;;;3.58;;
79670;SDS011;69137;50.878;8.050;2023-05-20T04:43:01;6.15;;;3.05;;
79670;SDS011;69137;50.878;8.050;2023-05-20T04:45:27;4.60;;;3.17;;
79670;SDS011;69137;50.878;8.050;2023-05-20T04:47:53;5.20;;;3.30;;
79670;SDS011;69137;50.878;8.050;2023-05-20T04:50:18;7.25;;;3.13;;
79670;SDS011;69137;50.878;8.050;2023-05-20T04:52:45;5.28;;;3.13;;
79670;SDS011;69137;50.878;8.050;2023-05-20T04:55:11;4.63;;;3.08;;
79670;SDS011;69137;50.878;8.050;2023-05-20T04:57:37;4.57;;;2.92;;
79670;SDS011;69137;50.878;8.050;2023-05-20T05:00:05;5.05;;;2.85;;
79670;SDS011;69137;50.878;8.050;2023-05-20T05:02:35;4.72;;;3.08;;
79670;SDS011;69137;50.878;8.050;2023-05-20T05:05:00;3.83;;;2.92;;
79670;SDS011;69137;50.878;8.050;2023-05-20T05:07:26;4.45;;;3.03;;
79670;SDS011;69137;50.878;8.050;2023-05-20T05:09:51;4.50;;;2.75;;
79670;SDS011;69137;50.878;8.050;2023-05-20T05:12:17;7.20;;;3.50;;
79670;SDS011;69137;50.878;8.050;2023-05-20T05:14:42;5.43;;;3.45;;
79670;SDS011;69137;50.878;8.050;2023-05-20T05:17:08;5.95;;;3.15;;
79670;SDS011;69137;50.878;8.050;2023-05-20T05:19:33;4.68;;;3.33;;
79670;SDS011;69137;50.878;8.050;2023-05-20T05:21:58;4.68;;;3.10;;
79670;SDS011;69137;50.878;8.050;2023-05-20T05:24:24;6.78;;;2.88;;
79670;SDS011;69137;50.878;8.050;2023-05-20T05:26:53;5.13;;;3.70;;
79670;SDS011;69137;50.878;8.050;2023-05-20T05:29:18;4.40;;;2.97;;
79670;SDS011;69137;50.878;8.050;2023-05-20T05:31:44;6.10;;;3.13;;
79670;SDS011;69137;50.878;8.050;2023-05-20T05:34:09;6.32;;;3.13;;
79670;SDS011;69137;50.878;8.050;2023-05-20T05:36:37;4.20;;;3.17;;
79670;SDS011;69137;50.878;8.050;2023-05-20T05:39:03;7.70;;;3.28;;
79670;SDS011;69137;50.878;8.050;2023-05-20T05:41:29;4.93;;;2.85;;
79670;SDS011;69137;50.878;8.050;2023-05-20T05:43:55;4.30;;;3.03;;
79670;SDS011;69137;50.878;8.050;2023-05-20T05:46:20;5.80;;;3.22;;
79670;SDS011;69137;50.878;8.050;2023-05-20T05:48:47;9.43;;;3.85;;
79670;SDS011;69137;50.878;8.050;2023-05-20T05:51:14;6.78;;;3.45;;
79670;SDS011;69137;50.878;8.050;2023-05-20T05:53:40;5.68;;;3.13;;
79670;SDS011;69137;50.878;8.050;2023-05-20T05:56:05;4.80;;;2.97;;
79670;SDS011;69137;50.878;8.050;2023-05-20T05:58:31;6.38;;;3.28;;
79670;SDS011;69137;50.878;8.050;2023-05-20T06:00:57;7.53;;;2.95;;
79670;SDS011;69137;50.878;8.050;2023-05-20T06:03:22;5.13;;;3.55;;
79670;SDS011;69137;50.878;8.050;2023-05-20T06:05:48;6.57;;;3.45;;
79670;SDS011;69137;50.878;8.050;2023-05-20T06:08:13;5.72;;;3.92;;
79670;SDS011;69137;50.878;8.050;2023-05-20T06:10:39;6.15;;;3.60;;
79670;SDS011;69137;50.878;8.050;2023-05-20T06:13:04;5.65;;;3.03;;
79670;SDS011;69137;50.878;8.050;2023-05-20T06:15:30;4.45;;;2.97;;
79670;SDS011;69137;50.878;8.050;2023-05-20T06:17:55;5.15;;;2.92;;
79670;SDS011;69137;50.878;8.050;2023-05-20T06:20:21;4.43;;;3.38;;
79670;SDS011;69137;50.878;8.050;2023-05-20T06:22:47;4.82;;;3.38;;
79670;SDS011;69137;50.878;8.050;2023-05-20T06:25:12;4.07;;;3.05;;
79670;SDS011;69137;50.878;8.050;2023-05-20T06:27:38;4.95;;;3.90;;
79670;SDS011;69137;50.878;8.050;2023-05-20T06:30:03;5.53;;;3.28;;
79670;SDS011;69137;50.878;8.050;2023-05-20T06:32:29;6.00;;;3.50;;
79670;SDS011;69137;50.878;8.050;2023-05-20T06:34:55;5.22;;;3.47;;
79670;SDS011;69137;50.878;8.050;2023-05-20T06:37:20;6.35;;;4.20;;
79670;SDS011;69137;50.878;8.050;2023-05-20T06:39:48;4.60;;;3.45;;
79670;SDS011;69137;50.878;8.050;2023-05-20T06:42:17;6.50;;;4.00;;
79670;SDS011;69137;50.878;8.050;2023-05-20T06:44:45;5.40;;;4.03;;
79670;SDS011;69137;50.878;8.050;2023-05-20T06:47:12;4.85;;;3.03;;
79670;SDS011;69137;50.878;8.050;2023-05-20T06:49:39;9.25;;;3.78;;
79670;SDS011;69137;50.878;8.050;2023-05-20T06:52:06;4.60;;;3.05;;
79670;SDS011;69137;50.878;8.050;2023-05-20T06:54:31;6.72;;;4.18;;
79670;SDS011;69137;50.878;8.050;2023-05-20T06:56:59;6.65;;;3.83;;
79670;SDS011;69137;50.878;8.050;2023-05-20T06:59:25;5.68;;;3.70;;
79670;SDS011;69137;50.878;8.050;2023-05-20T07:01:50;6.82;;;3.65;;
79670;SDS011;69137;50.878;8.050;2023-05-20T07:04:16;5.28;;;3.67;;
79670;SDS011;69137;50.878;8.050;2023-05-20T07:06:41;7.20;;;4.40;;
79670;SDS011;69137;50.878;8.050;2023-05-20T07:09:06;6.68;;;4.03;;
79670;SDS011;69137;50.878;8.050;2023-05-20T07:11:32;6.32;;;3.92;;
79670;SDS011;69137;50.878;8.050;2023-05-20T07:13:57;8.13;;;3.58;;
79670;SDS011;69137;50.878;8.050;2023-05-20T07:16:23;6.30;;;3.97;;
79670;SDS011;69137;50.878;8.050;2023-05-20T07:18:48;7.75;;;4.30;;
79670;SDS011;69137;50.878;8.050;2023-05-20T07:21:14;4.75;;;3.35;;
79670;SDS011;69137;50.878;8.050;2023-05-20T07:23:39;8.23;;;4.13;;
79670;SDS011;69137;50.878;8.050;2023-05-20T07:26:04;6.72;;;4.40;;
79670;SDS011;69137;50.878;8.050;2023-05-20T07:28:30;6.60;;;4.43;;
79670;SDS011;69137;50.878;8.050;2023-05-20T07:30:55;6.63;;;3.92;;
79670;SDS011;69137;50.878;8.050;2023-05-20T07:33:21;6.40;;;3.83;;
79670;SDS011;69137;50.878;8.050;2023-05-20T07:35:47;8.10;;;3.80;;
79670;SDS011;69137;50.878;8.050;2023-05-20T07:38:12;5.65;;;4.00;;
79670;SDS011;69137;50.878;8.050;2023-05-20T07:40:38;6.32;;;3.80;;
79670;SDS011;69137;50.878;8.050;2023-05-20T07:43:05;6.03;;;3.60;;
79670;SDS011;69137;50.878;8.050;2023-05-20T07:45:33;7.93;;;4.00;;
79670;SDS011;69137;50.878;8.050;2023-05-20T07:47:59;4.88;;;3.50;;
79670;SDS011;69137;50.878;8.050;2023-05-20T07:50:25;5.50;;;4.05;;
79670;SDS011;69137;50.878;8.050;2023-05-20T07:52:50;5.97;;;3.40;;
79670;SDS011;69137;50.878;8.050;2023-05-20T07:55:16;5.85;;;3.50;;
79670;SDS011;69137;50.878;8.050;2023-05-20T07:57:42;5.70;;;3.80;;
79670;SDS011;69137;50.878;8.050;2023-05-20T08:00:08;6.45;;;3.83;;
79670;SDS011;69137;50.878;8.050;2023-05-20T08:02:34;6.70;;;4.40;;
79670;SDS011;69137;50.878;8.050;2023-05-20T08:04:59;8.82;;;4.10;;
79670;SDS011;69137;50.878;8.050;2023-05-20T08:07:24;6.57;;;3.97;;
79670;SDS011;69137;50.878;8.050;2023-05-20T08:09:50;5.72;;;3.95;;
79670;SDS011;69137;50.878;8.050;2023-05-20T08:12:15;6.38;;;3.33;;
79670;SDS011;69137;50.878;8.050;2023-05-20T08:14:41;7.15;;;3.65;;
79670;SDS011;69137;50.878;8.050;2023-05-20T08:17:07;7.68;;;3.97;;
79670;SDS011;69137;50.878;8.050;2023-05-20T08:19:32;5.13;;;3.60;;
79670;SDS011;69137;50.878;8.050;2023-05-20T08:21:58;4.32;;;3.20;;
79670;SDS011;69137;50.878;8.050;2023-05-20T08:24:23;5.13;;;3.50;;
79670;SDS011;69137;50.878;8.050;2023-05-20T08:26:49;5.65;;;3.40;;
79670;SDS011;69137;50.878;8.050;2023-05-20T08:29:14;6.40;;;3.88;;
79670;SDS011;69137;50.878;8.050;2023-05-20T08:31:40;6.63;;;3.58;;
79670;SDS011;69137;50.878;8.050;2023-05-20T08:34:05;7.05;;;4.15;;
79670;SDS011;69137;50.878;8.050;2023-05-20T08:36:31;8.40;;;3.92;;
79670;SDS011;69137;50.878;8.050;2023-05-20T08:38:57;4.93;;;3.63;;
79670;SDS011;69137;50.878;8.050;2023-05-20T08:41:22;5.28;;;3.88;;
79670;SDS011;69137;50.878;8.050;2023-05-20T08:43:48;8.48;;;4.50;;
79670;SDS011;69137;50.878;8.050;2023-05-20T08:46:16;10.90;;;5.15;;
79670;SDS011;69137;50.878;8.050;2023-05-20T08:48:43;7.03;;;4.30;;
79670;SDS011;69137;50.878;8.050;2023-05-20T08:51:09;5.93;;;4.47;;
79670;SDS011;69137;50.878;8.050;2023-05-20T08:53:35;7.03;;;4.38;;
79670;SDS011;69137;50.878;8.050;2023-05-20T08:56:01;7.18;;;4.72;;
79670;SDS011;69137;50.878;8.050;2023-05-20T08:58:30;6.18;;;4.20;;
79670;SDS011;69137;50.878;8.050;2023-05-20T09:00:59;6.63;;;4.43;;
79670;SDS011;69137;50.878;8.050;2023-05-20T09:03:24;5.07;;;3.78;;
79670;SDS011;69137;50.878;8.050;2023-05-20T09:05:51;5.05;;;3.50;;
79670;SDS011;69137;50.878;8.050;2023-05-20T09:08:17;5.63;;;3.63;;
79670;SDS011;69137;50.878;8.050;2023-05-20T09:10:42;7.18;;;3.60;;
79670;SDS011;69137;50.878;8.050;2023-05-20T09:13:08;6.00;;;4.07;;
79670;SDS011;69137;50.878;8.050;2023-05-20T09:15:35;5.32;;;3.63;;
79670;SDS011;69137;50.878;8.050;2023-05-20T09:18:02;6.15;;;3.72;;
79670;SDS011;69137;50.878;8.050;2023-05-20T09:20:28;7.95;;;4.30;;
79670;SDS011;69137;50.878;8.050;2023-05-20T09:22:59;5.70;;;3.80;;
79670;SDS011;69137;50.878;8.050;2023-05-20T09:25:25;5.63;;;3.72;;
79670;SDS011;69137;50.878;8.050;2023-05-20T09:27:54;9.77;;;3.92;;
79670;SDS011;69137;50.878;8.050;2023-05-20T09:30:20;7.35;;;4.07;;
79670;SDS011;69137;50.878;8.050;2023-05-20T09:32:58;5.90;;;4.18;;
79670;SDS011;69137;50.878;8.050;2023-05-20T09:35:25;8.90;;;4.05;;
79670;SDS011;69137;50.878;8.050;2023-05-20T09:37:52;5.63;;;4.30;;
79670;SDS011;69137;50.878;8.050;2023-05-20T09:40:20;5.38;;;3.95;;
79670;SDS011;69137;50.878;8.050;2023-05-20T09:42:52;6.85;;;4.00;;
79670;SDS011;69137;50.878;8.050;2023-05-20T09:45:20;5.32;;;3.83;;
79670;SDS011;69137;50.878;8.050;2023-05-20T09:47:46;5.47;;;3.78;;
79670;SDS011;69137;50.878;8.050;2023-05-20T09:50:14;5.70;;;4.28;;
79670;SDS011;69137;50.878;8.050;2023-05-20T09:52:40;7.70;;;4.15;;
79670;SDS011;69137;50.878;8.050;2023-05-20T09:55:08;5.13;;;3.78;;
79670;SDS011;69137;50.878;8.050;2023-05-20T09:57:37;5.55;;;3.47;;
79670;SDS011;69137;50.878;8.050;2023-05-20T10:00:03;5.75;;;3.60;;
79670;SDS011;69137;50.878;8.050;2023-05-20T10:02:30;6.53;;;4.60;;
79670;SDS011;69137;50.878;8.050;2023-05-20T10:04:58;10.15;;;4.07;;
79670;SDS011;69137;50.878;8.050;2023-05-20T10:20:53;5.15;;;3.75;;
79670;SDS011;69137;50.878;8.050;2023-05-20T10:23:19;6.53;;;4.35;;
79670;SDS011;69137;50.878;8.050;2023-05-20T10:25:52;6.03;;;3.92;;
79670;SDS011;69137;50.878;8.050;2023-05-20T10:28:28;7.28;;;4.85;;
79670;SDS011;69137;50.878;8.050;2023-05-20T10:30:56;7.13;;;4.45;;
79670;SDS011;69137;50.878;8.050;2023-05-20T10:33:23;6.85;;;4.38;;
79670;SDS011;69137;50.878;8.050;2023-05-20T10:35:51;5.78;;;4.05;;
79670;SDS011;69137;50.878;8.050;2023-05-20T10:38:17;7.40;;;4.28;;
79670;SDS011;69137;50.878;8.050;2023-05-20T10:40:44;5.68;;;3.92;;
79670;SDS011;69137;50.878;8.050;2023-05-20T10:43:10;6.53;;;4.22;;
79670;SDS011;69137;50.878;8.050;2023-05-20T10:45:49;6.10;;;4.03;;
79670;SDS011;69137;50.878;8.050;2023-05-20T10:48:22;5.72;;;3.85;;
79670;SDS011;69137;50.878;8.050;2023-05-20T10:50:47;7.30;;;3.72;;
79670;SDS011;69137;50.878;8.050;2023-05-20T10:53:13;6.47;;;4.20;;
79670;SDS011;69137;50.878;8.050;2023-05-20T10:55:39;6.15;;;3.75;;
79670;SDS011;69137;50.878;8.050;2023-05-20T10:58:11;6.20;;;4.20;;
79670;SDS011;69137;50.878;8.050;2023-05-20T11:00:38;6.63;;;4.85;;
79670;SDS011;69137;50.878;8.050;2023-05-20T11:03:05;6.53;;;3.83;;
79670;SDS011;69137;50.878;8.050;2023-05-20T11:05:31;6.88;;;4.45;;
79670;SDS011;69137;50.878;8.050;2023-05-20T11:08:05;5.95;;;4.45;;
79670;SDS011;69137;50.878;8.050;2023-05-20T11:10:35;7.47;;;4.22;;
79670;SDS011;69137;50.878;8.050;2023-05-20T11:13:01;6.82;;;4.13;;
79670;SDS011;69137;50.878;8.050;2023-05-20T11:15:28;6.75;;;4.32;;
79670;SDS011;69137;50.878;8.050;2023-05-20T11:17:56;6.38;;;3.85;;
79670;SDS011;69137;50.878;8.050;2023-05-20T11:20:25;8.55;;;3.75;;
79670;SDS011;69137;50.878;8.050;2023-05-20T11:22:51;4.63;;;3.45;;
79670;SDS011;69137;50.878;8.050;2023-05-20T11:25:18;5.43;;;3.50;;
79670;SDS011;69137;50.878;8.050;2023-05-20T11:27:44;6.80;;;4.18;;
79670;SDS011;69137;50.878;8.050;2023-05-20T11:30:10;5.68;;;4.13;;
79670;SDS011;69137;50.878;8.050;2023-05-20T11:32:41;7.53;;;4.18;;
79670;SDS011;69137;50.878;8.050;2023-05-20T11:35:23;7.07;;;3.65;;
79670;SDS011;69137;50.878;8.050;2023-05-20T11:37:56;5.65;;;4.25;;
79670;SDS011;69137;50.878;8.050;2023-05-20T11:40:25;7.20;;;4.43;;
79670;SDS011;69137;50.878;8.050;2023-05-20T11:42:55;4.50;;;3.63;;
79670;SDS011;69137;50.878;8.050;2023-05-20T11:45:22;7.35;;;3.92;;
79670;SDS011;69137;50.878;8.050;2023-05-20T11:48:01;6.68;;;4.00;;
79670;SDS011;69137;50.878;8.050;2023-05-20T11:50:28;5.30;;;3.83;;
79670;SDS011;69137;50.878;8.050;2023-05-20T11:53:01;5.05;;;3.80;;
79670;SDS011;69137;50.878;8.050;2023-05-20T11:55:28;7.35;;;4.47;;
79670;SDS011;69137;50.878;8.050;2023-05-20T11:57:56;6.35;;;4.05;;
79670;SDS011;69137;50.878;8.050;2023-05-20T12:00:22;7.63;;;4.57;;
79670;SDS011;69137;50.878;8.050;2023-05-20T12:02:48;5.68;;;3.88;;
79670;SDS011;69137;50.878;8.050;2023-05-20T12:05:13;5.70;;;4.35;;
79670;SDS011;69137;50.878;8.050;2023-05-20T12:07:40;6.25;;;4.32;;
79670;SDS011;69137;50.878;8.050;2023-05-20T12:10:05;9.57;;;4.90;;
79670;SDS011;69137;50.878;8.050;2023-05-20T12:12:32;8.02;;;4.57;;
79670;SDS011;69137;50.878;8.050;2023-05-20T12:14:57;8.20;;;4.88;;
79670;SDS011;69137;50.878;8.050;2023-05-20T12:17:23;6.63;;;4.80;;
79670;SDS011;69137;50.878;8.050;2023-05-20T12:19:48;6.70;;;4.68;;
79670;SDS011;69137;50.878;8.050;2023-05-20T12:22:14;8.77;;;4.50;;
79670;SDS011;69137;50.878;8.050;2023-05-20T12:24:42;6.50;;;4.68;;
79670;SDS011;69137;50.878;8.050;2023-05-20T12:27:07;7.68;;;4.90;;
79670;SDS011;69137;50.878;8.050;2023-05-20T12:29:33;5.63;;;4.45;;
79670;SDS011;69137;50.878;8.050;2023-05-20T12:32:00;6.57;;;4.57;;
79670;SDS011;69137;50.878;8.050;2023-05-20T12:34:26;6.25;;;4.85;;
79670;SDS011;69137;50.878;8.050;2023-05-20T12:36:51;8.65;;;4.55;;
79670;SDS011;69137;50.878;8.050;2023-05-20T12:39:17;7.13;;;4.95;;
79670;SDS011;69137;50.878;8.050;2023-05-20T12:41:43;7.63;;;5.35;;
79670;SDS011;69137;50.878;8.050;2023-05-20T12:44:09;7.53;;;4.78;;
79670;SDS011;69137;50.878;8.050;2023-05-20T12:46:35;10.52;;;5.35;;
79670;SDS011;69137;50.878;8.050;2023-05-20T12:49:01;7.30;;;4.93;;
79670;SDS011;69137;50.878;8.050;2023-05-20T12:51:27;6.40;;;4.40;;
79670;SDS011;69137;50.878;8.050;2023-05-20T12:53:52;5.35;;;4.15;;
79670;SDS011;69137;50.878;8.050;2023-05-20T12:56:17;8.35;;;5.13;;
79670;SDS011;69137;50.878;8.050;2023-05-20T12:58:44;8.43;;;4.90;;
79670;SDS011;69137;50.878;8.050;2023-05-20T13:01:11;11.48;;;4.80;;
79670;SDS011;69137;50.878;8.050;2023-05-20T13:03:37;6.07;;;4.18;;
79670;SDS011;69137;50.878;8.050;2023-05-20T13:06:02;7.15;;;4.72;;
79670;SDS011;69137;50.878;8.050;2023-05-20T13:08:28;6.68;;;5.03;;
79670;SDS011;69137;50.878;8.050;2023-05-20T13:10:53;7.82;;;5.05;;
79670;SDS011;69137;50.878;8.050;2023-05-20T13:18:22;8.93;;;4.97;;
79670;SDS011;69137;50.878;8.050;2023-05-20T13:20:47;8.00;;;5.35;;
79670;SDS011;69137;50.878;8.050;2023-05-20T13:23:15;7.68;;;4.68;;
79670;SDS011;69137;50.878;8.050;2023-05-20T13:25:41;7.28;;;4.93;;
79670;SDS011;69137;50.878;8.050;2023-05-20T13:28:06;8.13;;;4.45;;
79670;SDS011;69137;50.878;8.050;2023-05-20T13:30:32;6.90;;;4.55;;
79670;SDS011;69137;50.878;8.050;2023-05-20T13:32:58;5.43;;;4.20;;
79670;SDS011;69137;50.878;8.050;2023-05-20T13:35:24;7.57;;;4.25;;
79670;SDS011;69137;50.878;8.050;2023-05-20T13:37:49;6.82;;;4.82;;
79670;SDS011;69137;50.878;8.050;2023-05-20T13:40:15;8.10;;;4.88;;
79670;SDS011;69137;50.878;8.050;2023-05-20T13:42:41;6.22;;;4.68;;
79670;SDS011;69137;50.878;8.050;2023-05-20T13:45:08;6.80;;;4.38;;
79670;SDS011;69137;50.878;8.050;2023-05-20T13:47:33;6.40;;;4.63;;
79670;SDS011;69137;50.878;8.050;2023-05-20T13:49:59;9.48;;;5.40;;
79670;SDS011;69137;50.878;8.050;2023-05-20T13:52:24;7.30;;;4.97;;
79670;SDS011;69137;50.878;8.050;2023-05-20T13:54:50;7.47;;;4.32;;
79670;SDS011;69137;50.878;8.050;2023-05-20T13:57:15;7.03;;;4.20;;
79670;SDS011;69137;50.878;8.050;2023-05-20T13:59:41;6.00;;;4.85;;
79670;SDS011;69137;50.878;8.050;2023-05-20T14:02:06;13.27;;;5.10;;
79670;SDS011;69137;50.878;8.050;2023-05-20T14:04:32;6.65;;;4.95;;
79670;SDS011;69137;50.878;8.050;2023-05-20T14:07:06;8.35;;;5.00;;
79670;SDS011;69137;50.878;8.050;2023-05-20T14:09:31;7.45;;;5.03;;
79670;SDS011;69137;50.878;8.050;2023-05-20T14:11:57;7.47;;;4.68;;
79670;SDS011;69137;50.878;8.050;2023-05-20T14:14:22;7.97;;;5.40;;
79670;SDS011;69137;50.878;8.050;2023-05-20T14:16:48;7.28;;;4.65;;
79670;SDS011;69137;50.878;8.050;2023-05-20T14:19:13;7.45;;;4.88;;
79670;SDS011;69137;50.878;8.050;2023-05-20T14:21:38;10.10;;;4.95;;
79670;SDS011;69137;50.878;8.050;2023-05-20T14:24:04;9.35;;;5.05;;
79670;SDS011;69137;50.878;8.050;2023-05-20T14:26:30;7.93;;;5.32;;
79670;SDS011;69137;50.878;8.050;2023-05-20T14:28:57;7.07;;;4.50;;
79670;SDS011;69137;50.878;8.050;2023-05-20T14:31:22;6.57;;;4.80;;
79670;SDS011;69137;50.878;8.050;2023-05-20T14:33:48;8.63;;;4.50;;
79670;SDS011;69137;50.878;8.050;2023-05-20T14:36:13;8.80;;;4.60;;
79670;SDS011;69137;50.878;8.050;2023-05-20T14:38:39;8.48;;;4.90;;
79670;SDS011;69137;50.878;8.050;2023-05-20T14:41:04;6.15;;;4.35;;
79670;SDS011;69137;50.878;8.050;2023-05-20T14:43:29;9.63;;;5.05;;
79670;SDS011;69137;50.878;8.050;2023-05-20T14:45:56;9.65;;;5.03;;
79670;SDS011;69137;50.878;8.050;2023-05-20T14:48:21;7.15;;;4.63;;
79670;SDS011;69137;50.878;8.050;2023-05-20T14:50:47;6.85;;;4.95;;
79670;SDS011;69137;50.878;8.050;2023-05-20T14:53:12;7.40;;;5.15;;
79670;SDS011;69137;50.878;8.050;2023-05-20T14:55:38;8.20;;;4.93;;
79670;SDS011;69137;50.878;8.050;2023-05-20T14:58:03;6.85;;;4.45;;
79670;SDS011;69137;50.878;8.050;2023-05-20T15:00:29;10.38;;;5.18;;